Evangeline, Louisiana
Current Conditions -  °F | °C
As of 2:55 PM on Friday 19 Dec 2014 (Local Time) from K3R7 Reporting Station
Light Rain Light Rain  
Wind Chill: 55°   Ceiling: 500
Heat Index: 55°   Visibility: 10mi
Dew Point: 55°   Wind: 9mph
Humidity: 99%   Direction: 40°NE
Pressure: 30.02"   Gusts: NA
Location:  30.26°N, 92.57°W
Report Text: K3R7 192055Z AUTO 04008KT 10SM -RA OVC005 13/13 A3002 RMK AO2 P0004 60034 T01270125
Loading
Personal Weather Stations






























Interactive Weather Map New forecast layout! Learn more

10-Day Weather Forecast

Advertisements
Track Severe Weather on mobile